sensor_id;sensor_type;location;lat;lon;timestamp;temperature;humidity
69823;SHT31;57119;52.516;13.508;2022-09-12T18:53:17;15.08;87.02
69823;SHT31;57119;52.516;13.508;2022-09-12T18:55:43;15.02;88.71
69823;SHT31;57119;52.516;13.508;2022-09-12T18:58:08;14.95;88.52
69823;SHT31;57119;52.516;13.508;2022-09-12T19:00:34;14.88;89.81
69823;SHT31;57119;52.516;13.508;2022-09-12T19:02:59;14.84;89.98
69823;SHT31;57119;52.516;13.508;2022-09-12T19:05:24;14.84;90.03
69823;SHT31;57119;52.516;13.508;2022-09-12T19:07:50;14.78;90.18
69823;SHT31;57119;52.516;13.508;2022-09-12T19:10:15;14.71;90.82
69823;SHT31;57119;52.516;13.508;2022-09-12T19:12:40;14.63;91.07
69823;SHT31;57119;52.516;13.508;2022-09-12T19:15:06;14.52;91.18
69823;SHT31;57119;52.516;13.508;2022-09-12T19:17:33;14.41;91.02
69823;SHT31;57119;52.516;13.508;2022-09-12T19:19:59;14.40;91.56
69823;SHT31;57119;52.516;13.508;2022-09-12T19:22:24;14.37;91.59
69823;SHT31;57119;52.516;13.508;2022-09-12T19:24:50;14.33;91.61
69823;SHT31;57119;52.516;13.508;2022-09-12T19:27:15;14.23;91.97
69823;SHT31;57119;52.516;13.508;2022-09-12T19:29:41;14.17;92.56
69823;SHT31;57119;52.516;13.508;2022-09-12T19:32:06;14.10;92.70
69823;SHT31;57119;52.516;13.508;2022-09-12T19:34:32;14.03;93.23
69823;SHT31;57119;52.516;13.508;2022-09-12T19:36:57;14.06;93.05
69823;SHT31;57119;52.516;13.508;2022-09-12T19:39:23;13.95;92.93
69823;SHT31;57119;52.516;13.508;2022-09-12T19:41:49;13.89;93.89
69823;SHT31;57119;52.516;13.508;2022-09-12T19:44:14;13.85;93.80
69823;SHT31;57119;52.516;13.508;2022-09-12T19:46:43;13.82;93.54
69823;SHT31;57119;52.516;13.508;2022-09-12T19:49:09;13.78;94.06
69823;SHT31;57119;52.516;13.508;2022-09-12T19:51:35;13.79;93.75
69823;SHT31;57119;52.516;13.508;2022-09-12T19:54:01;13.73;93.84
69823;SHT31;57119;52.516;13.508;2022-09-12T19:56:27;13.65;94.12
69823;SHT31;57119;52.516;13.508;2022-09-12T19:58:52;13.58;94.43
69823;SHT31;57119;52.516;13.508;2022-09-12T20:01:23;13.58;94.71
69823;SHT31;57119;52.516;13.508;2022-09-12T20:03:49;13.54;94.98
69823;SHT31;57119;52.516;13.508;2022-09-12T20:08:44;13.54;94.90
69823;SHT31;57119;52.516;13.508;2022-09-12T20:11:13;13.50;94.91
69823;SHT31;57119;52.516;13.508;2022-09-12T20:13:39;13.45;94.99
69823;SHT31;57119;52.516;13.508;2022-09-12T20:16:15;13.35;95.45
69823;SHT31;57119;52.516;13.508;2022-09-12T20:18:42;13.33;95.44
69823;SHT31;57119;52.516;13.508;2022-09-12T20:21:14;13.27;95.74
69823;SHT31;57119;52.516;13.508;2022-09-12T20:23:39;13.27;95.81
69823;SHT31;57119;52.516;13.508;2022-09-12T20:26:06;13.25;95.93
69823;SHT31;57119;52.516;13.508;2022-09-12T20:28:31;13.24;95.82
69823;SHT31;57119;52.516;13.508;2022-09-12T20:31:05;13.24;95.91
69823;SHT31;57119;52.516;13.508;2022-09-12T20:33:31;13.15;96.17
69823;SHT31;57119;52.516;13.508;2022-09-12T20:36:04;13.14;96.22
69823;SHT31;57119;52.516;13.508;2022-09-12T20:38:30;13.13;96.46
69823;SHT31;57119;52.516;13.508;2022-09-12T20:40:56;13.10;96.48
69823;SHT31;57119;52.516;13.508;2022-09-12T20:43:21;13.06;96.36
69823;SHT31;57119;52.516;13.508;2022-09-12T20:45:46;13.03;96.36
69823;SHT31;57119;52.516;13.508;2022-09-12T20:48:11;13.06;96.35
69823;SHT31;57119;52.516;13.508;2022-09-12T20:50:37;13.03;96.33
69823;SHT31;57119;52.516;13.508;2022-09-12T20:53:02;13.03;96.65
69823;SHT31;57119;52.516;13.508;2022-09-12T20:55:27;13.00;96.64
69823;SHT31;57119;52.516;13.508;2022-09-12T20:57:53;13.00;96.63
69823;SHT31;57119;52.516;13.508;2022-09-12T21:00:18;12.94;96.98
69823;SHT31;57119;52.516;13.508;2022-09-12T21:02:43;12.92;96.94
69823;SHT31;57119;52.516;13.508;2022-09-12T21:05:08;12.93;96.92
69823;SHT31;57119;52.516;13.508;2022-09-12T21:07:35;12.85;97.11
69823;SHT31;57119;52.516;13.508;2022-09-12T21:10:00;12.85;97.20
69823;SHT31;57119;52.516;13.508;2022-09-12T21:12:26;12.89;97.36
69823;SHT31;57119;52.516;13.508;2022-09-12T21:14:52;12.83;97.27
69823;SHT31;57119;52.516;13.508;2022-09-12T21:17:17;12.79;97.55
69823;SHT31;57119;52.516;13.508;2022-09-12T21:19:42;12.79;97.59
69823;SHT31;57119;52.516;13.508;2022-09-12T21:22:08;12.76;97.57
69823;SHT31;57119;52.516;13.508;2022-09-12T21:24:33;12.75;97.65
69823;SHT31;57119;52.516;13.508;2022-09-12T21:26:58;12.76;97.51
69823;SHT31;57119;52.516;13.508;2022-09-12T21:29:24;12.70;97.77
69823;SHT31;57119;52.516;13.508;2022-09-12T21:31:49;12.70;97.78
69823;SHT31;57119;52.516;13.508;2022-09-12T21:34:15;12.66;97.88
69823;SHT31;57119;52.516;13.508;2022-09-12T21:36:41;12.62;97.95
69823;SHT31;57119;52.516;13.508;2022-09-12T21:39:06;12.62;98.01
69823;SHT31;57119;52.516;13.508;2022-09-12T21:41:32;12.58;98.39
69823;SHT31;57119;52.516;13.508;2022-09-12T21:43:57;12.56;98.48
69823;SHT31;57119;52.516;13.508;2022-09-12T21:46:22;12.53;98.60
69823;SHT31;57119;52.516;13.508;2022-09-12T21:48:48;12.48;98.80
69823;SHT31;57119;52.516;13.508;2022-09-12T21:51:13;12.48;98.68
69823;SHT31;57119;52.516;13.508;2022-09-12T21:53:38;12.45;98.52
69823;SHT31;57119;52.516;13.508;2022-09-12T21:56:05;12.44;98.56
69823;SHT31;57119;52.516;13.508;2022-09-12T21:58:32;12.42;99.14
69823;SHT31;57119;52.516;13.508;2022-09-12T22:00:57;12.32;98.68
69823;SHT31;57119;52.516;13.508;2022-09-12T22:03:24;12.27;98.93
69823;SHT31;57119;52.516;13.508;2022-09-12T22:05:55;12.27;99.07
69823;SHT31;57119;52.516;13.508;2022-09-12T22:08:20;12.25;99.27
69823;SHT31;57119;52.516;13.508;2022-09-12T22:10:46;12.25;99.35
69823;SHT31;57119;52.516;13.508;2022-09-12T22:13:11;12.29;98.89
69823;SHT31;57119;52.516;13.508;2022-09-12T22:15:37;12.31;99.09
69823;SHT31;57119;52.516;13.508;2022-09-12T22:18:02;12.31;98.76
69823;SHT31;57119;52.516;13.508;2022-09-12T22:20:27;12.28;99.06
69823;SHT31;57119;52.516;13.508;2022-09-12T22:22:53;12.31;99.16
69823;SHT31;57119;52.516;13.508;2022-09-12T22:25:37;12.25;99.85
69823;SHT31;57119;52.516;13.508;2022-09-12T22:28:02;12.21;99.56
69823;SHT31;57119;52.516;13.508;2022-09-12T22:30:28;12.21;99.79
69823;SHT31;57119;52.516;13.508;2022-09-12T22:32:53;12.14;99.68
69823;SHT31;57119;52.516;13.508;2022-09-12T22:35:18;12.18;99.82
69823;SHT31;57119;52.516;13.508;2022-09-12T22:37:46;12.16;99.53
69823;SHT31;57119;52.516;13.508;2022-09-12T22:40:11;12.16;99.61
69823;SHT31;57119;52.516;13.508;2022-09-12T22:42:37;12.05;99.75
69823;SHT31;57119;52.516;13.508;2022-09-12T22:45:03;12.07;99.99
69823;SHT31;57119;52.516;13.508;2022-09-12T22:47:29;12.04;99.99
69823;SHT31;57119;52.516;13.508;2022-09-12T22:49:55;12.08;99.99
69823;SHT31;57119;52.516;13.508;2022-09-12T22:52:20;12.01;99.99
69823;SHT31;57119;52.516;13.508;2022-09-12T22:54:45;11.94;99.99
69823;SHT31;57119;52.516;13.508;2022-09-12T22:57:12;11.94;99.99
69823;SHT31;57119;52.516;13.508;2022-09-12T22:59:38;11.94;99.99
69823;SHT31;57119;52.516;13.508;2022-09-12T23:02:04;11.95;99.99
69823;SHT31;57119;52.516;13.508;2022-09-12T23:04:29;12.02;99.99
69823;SHT31;57119;52.516;13.508;2022-09-12T23:06:55;12.02;99.99
69823;SHT31;57119;52.516;13.508;2022-09-12T23:09:20;12.07;99.99
69823;SHT31;57119;52.516;13.508;2022-09-12T23:11:45;12.24;99.99
69823;SHT31;57119;52.516;13.508;2022-09-12T23:14:11;12.22;99.99
69823;SHT31;57119;52.516;13.508;2022-09-12T23:16:37;12.21;99.99
69823;SHT31;57119;52.516;13.508;2022-09-12T23:19:02;12.13;99.99
69823;SHT31;57119;52.516;13.508;2022-09-12T23:21:27;12.17;99.99
69823;SHT31;57119;52.516;13.508;2022-09-12T23:23:54;12.08;99.99
69823;SHT31;57119;52.516;13.508;2022-09-12T23:26:24;12.01;99.99
69823;SHT31;57119;52.516;13.508;2022-09-12T23:29:03;11.89;99.99
69823;SHT31;57119;52.516;13.508;2022-09-12T23:31:31;12.04;99.99
69823;SHT31;57119;52.516;13.508;2022-09-12T23:33:59;12.01;99.99
69823;SHT31;57119;52.516;13.508;2022-09-12T23:36:26;11.98;99.99
69823;SHT31;57119;52.516;13.508;2022-09-12T23:38:52;11.91;99.99
69823;SHT31;57119;52.516;13.508;2022-09-12T23:41:18;12.02;99.99
69823;SHT31;57119;52.516;13.508;2022-09-12T23:43:43;12.00;99.99
69823;SHT31;57119;52.516;13.508;2022-09-12T23:46:10;11.95;99.99
69823;SHT31;57119;52.516;13.508;2022-09-12T23:48:36;11.94;99.99
69823;SHT31;57119;52.516;13.508;2022-09-12T23:51:02;11.98;99.99
69823;SHT31;57119;52.516;13.508;2022-09-12T23:53:27;11.93;99.99
69823;SHT31;57119;52.516;13.508;2022-09-12T23:55:53;11.91;99.99
69823;SHT31;57119;52.516;13.508;2022-09-12T23:58:19;12.05;99.99
